This is the latest recevied weather packets stored in our database for station/object OE6ATD-13. If no packets are shown the sender has not sent any weather packets the latest 1 day(s).
| Time | Temp. | Humidity | Pressure | Rain* | Wind** | Luminosity | Snow |
|---|---|---|---|---|---|---|---|
| 1778097322 | 16.11° C | 70% | 1008.8 hPa | 0 mm | - | 0 W/m² | - |
| 1778096129 | 16.67° C | 68% | 1008.9 hPa | 0 mm | - | 0 W/m² | - |
| 1778090726 | 18.89° C | 57% | 1007.7 hPa | 0 mm | - | 4 W/m² | - |
| 1778090122 | 18.89° C | 56% | 1007.9 hPa | 0 mm | - | 8 W/m² | - |
| 1778089518 | 19.44° C | 54% | 1007.8 hPa | 0 mm | - | 17 W/m² | - |
| 1778085319 | 20.56° C | 54% | 1007.8 hPa | 0 mm | - | 231 W/m² | - |
| 1778084730 | 21.11° C | 53% | 1008 hPa | 0 mm | - | 130 W/m² | - |
| 1778079926 | 20.56° C | 55% | 1008.4 hPa | 0 mm | - | 164 W/m² | - |
| 1778076920 | 20.56° C | 52% | 1008.4 hPa | 0 mm | - | 125 W/m² | - |
| 1778075727 | 22.22° C | 47% | 1008.5 hPa | 0 mm | - | 280 W/m² | - |
| 1778072720 | 23.89° C | 42% | 1008.4 hPa | 0 mm | - | 718 W/m² | - |
| 1778071525 | 23.89° C | 42% | 1008.5 hPa | 0 mm | - | 764 W/m² | - |
| 1778070921 | 23.89° C | 41% | 1008.5 hPa | 0 mm | - | 794 W/m² | - |
| 1778067326 | 22.78° C | 44% | 1008.5 hPa | 0 mm | - | 902 W/m² | - |
| 1778066722 | 21.67° C | 50% | 1008.7 hPa | 0 mm | - | 647 W/m² | - |
| 1778063722 | 20.56° C | 51% | 1009.3 hPa | 0 mm | - | 215 W/m² | - |
| 1778063118 | 20.56° C | 51% | 1009.5 hPa | 0 mm | - | 251 W/m² | - |
| 1778061925 | 20.56° C | 51% | 1009.6 hPa | 0 mm | - | 192 W/m² | - |
| 1778060723 | 20.56° C | 50% | 1009.6 hPa | 0 mm | - | 180 W/m² | - |
| 1778055920 | 22.78° C | 37% | 1009.1 hPa | 0 mm | - | 722 W/m² | - |
| 1778055316 | 22.78° C | 40% | 1009.2 hPa | 0 mm | - | 686 W/m² | - |
| 1778054727 | 22.22° C | 40% | 1009 hPa | 0 mm | - | 261 W/m² | - |
| 1778052920 | 22.78° C | 41% | 1009 hPa | 0 mm | - | 569 W/m² | - |
| 1778052316 | 21.67° C | 47% | 1009 hPa | 0 mm | - | 540 W/m² | - |
| 1778051727 | 21.11° C | 47% | 1008.7 hPa | 0 mm | - | 424 W/m² | - |
* Rain latest hour (hover to see other rain measurements)
** Current wind speed in m/s (hover to see current wind gust speed)